Legend — WDF9316 — position and weather

sailwx.info

Track history (hours):
 
Tides and Currents Weather Stations Pressure Air Temp Water Temp Dewpoint Dewpoint Depression Visibility Wind Speed Wind Dir Waves Ship Positions

Legend

Owner: Crowley Maritime, Seattle, WA. More information available from US FCC via Universal Licensing System and Coast Guard Vessel Documentation Center.

Last reported at 2014-Oct-31 17:30 UTC. Time now 2014-Nov-01 01:57 UTC.
Position N 25°34' W 080°01'.

Length 212 m; draft 7.7 m.

Type: Towing. MMSI: 366709000.

Date/timePositionNaut miles runAvg speedWind from/ knotsBaromVisibWave heightAir tempDewpointWater temp
2014-Oct-31 17:30N 25°34' W 080°01'9 9.6
2014-Oct-31 16:33N 25°43' W 080°01'10 9.8
2014-Oct-31 15:33N 25°53' W 080°00'1010.4
2014-Oct-31 14:33N 26°03' W 080°00'7 6.4
2014-Oct-31 13:29N 26°06' W 080°07'0 0.0
2014-Oct-31 12:29N 26°06' W 080°07'0 0.0
2014-Oct-31 11:32N 26°06' W 080°07'0 0.0
2014-Oct-31 10:32N 26°06' W 080°07'0 0.0
2014-Oct-31 09:32N 26°06' W 080°07'0 0.0
2014-Oct-31 08:32N 26°06' W 080°07'0 0.0
2014-Oct-31 07:32N 26°06' W 080°07'0 0.0
2014-Oct-31 06:32N 26°06' W 080°07'0 0.0
2014-Oct-31 05:32N 26°06' W 080°07'0 0.0
2014-Oct-31 04:23N 26°06' W 080°07'0 0.0
2014-Oct-31 03:26N 26°06' W 080°07'0 0.0
2014-Oct-31 02:23N 26°06' W 080°07'0 0.0
2014-Oct-31 01:26N 26°06' W 080°07'0 0.0
2014-Oct-31 00:29N 26°06' W 080°07'0 0.0
2014-Oct-30 23:29N 26°06' W 080°07'0 0.0
2014-Oct-30 22:29N 26°06' W 080°07'0 0.0
2014-Oct-30 21:29N 26°06' W 080°07'0 0.0
2014-Oct-30 20:29N 26°06' W 080°07'0 0.0
2014-Oct-30 19:32N 26°06' W 080°07'0 0.0
2014-Oct-30 18:32N 26°06' W 080°07'0 0.0
2014-Oct-30 17:32N 26°06' W 080°07'0 0.0
2014-Oct-30 16:32N 26°06' W 080°07'0 0.0
2014-Oct-30 15:32N 26°06' W 080°07'0 0.0
2014-Oct-30 14:23N 26°06' W 080°07'0 0.0
2014-Oct-30 13:33N 26°06' W 080°07'3 2.7
2014-Oct-30 12:33N 26°06' W 080°04'1 1.4
2014-Oct-30 11:33N 26°06' W 080°03'1 1.3
2014-Oct-30 10:31N 26°07' W 080°04'0 0.0
2014-Oct-30 09:31N 26°07' W 080°05'0 0.0
2014-Oct-30 08:31N 26°07' W 080°05'0 0.0
2014-Oct-30 07:31N 26°07' W 080°05'0 0.0
2014-Oct-30 06:31N 26°07' W 080°05'0 0.0
2014-Oct-30 05:31N 26°07' W 080°05'0 0.0
2014-Oct-30 04:22N 26°07' W 080°05'0 0.0
2014-Oct-30 03:25N 26°07' W 080°05'0 0.0
2014-Oct-30 02:25N 26°07' W 080°05'0 0.0
2014-Oct-30 01:25N 26°07' W 080°05'0 0.0
2014-Oct-30 00:28N 26°07' W 080°05'0 0.0
2014-Oct-29 23:28N 26°07' W 080°04'0 0.1
2014-Oct-29 22:28N 26°07' W 080°05'0 0.0
2014-Oct-29 21:31N 26°07' W 080°05'0 0.0
2014-Oct-29 20:31N 26°07' W 080°05'0 0.0
2014-Oct-29 19:31N 26°07' W 080°05'0 0.0
2014-Oct-29 18:31N 26°07' W 080°04'0 0.0
2014-Oct-29 17:31N 26°07' W 080°04'0 0.0
2014-Oct-29 16:31N 26°07' W 080°05'0 0.0
2014-Oct-29 15:31N 26°07' W 080°05'0 0.0
2014-Oct-29 14:22N 26°07' W 080°05'0 0.0
2014-Oct-29 13:25N 26°07' W 080°05'0 0.0
2014-Oct-29 12:25N 26°07' W 080°05'0 0.0
2014-Oct-29 11:25N 26°07' W 080°05'0 0.0
2014-Oct-29 10:28N 26°07' W 080°05'0 0.0
2014-Oct-29 09:28N 26°07' W 080°05'0 0.0
2014-Oct-29 08:28N 26°07' W 080°05'0 0.0
2014-Oct-29 07:33N 26°07' W 080°05'0 0.4
2014-Oct-29 06:33N 26°07' W 080°05'7 6.8
2014-Oct-29 05:33N 26°01' W 080°01'1414.1
2014-Oct-29 04:33N 25°47' W 079°59'  
2014-Oct-26 06:32N 29°23' W 093°41'9 9.4
2014-Oct-26 05:32N 29°32' W 093°43'  
Track history (hours):
 
Tides and Currents Weather Stations Pressure Air Temp Water Temp Dewpoint Dewpoint Depression Visibility Wind Speed Wind Dir Waves Ship Positions

Legend

Owner: Crowley Maritime, Seattle, WA. More information available from US FCC via Universal Licensing System and Coast Guard Vessel Documentation Center.

Last reported at 2014-Oct-31 17:30 UTC. Time now 2014-Nov-01 01:57 UTC.
Position N 25°34' W 080°01'.

Length 212 m; draft 7.7 m.

Type: Towing. MMSI: 366709000.

Date/timePositionNaut miles runAvg speedWind from/ knotsBaromVisibWave heightAir tempDewpointWater temp
2014-Oct-31 17:30N 25°34' W 080°01'9 9.6
2014-Oct-31 16:33N 25°43' W 080°01'10 9.8
2014-Oct-31 15:33N 25°53' W 080°00'1010.4
2014-Oct-31 14:33N 26°03' W 080°00'7 6.4
2014-Oct-31 13:29N 26°06' W 080°07'0 0.0
2014-Oct-31 12:29N 26°06' W 080°07'0 0.0
2014-Oct-31 11:32N 26°06' W 080°07'0 0.0
2014-Oct-31 10:32N 26°06' W 080°07'0 0.0
2014-Oct-31 09:32N 26°06' W 080°07'0 0.0
2014-Oct-31 08:32N 26°06' W 080°07'0 0.0
2014-Oct-31 07:32N 26°06' W 080°07'0 0.0
2014-Oct-31 06:32N 26°06' W 080°07'0 0.0
2014-Oct-31 05:32N 26°06' W 080°07'0 0.0
2014-Oct-31 04:23N 26°06' W 080°07'0 0.0
2014-Oct-31 03:26N 26°06' W 080°07'0 0.0
2014-Oct-31 02:23N 26°06' W 080°07'0 0.0
2014-Oct-31 01:26N 26°06' W 080°07'0 0.0
2014-Oct-31 00:29N 26°06' W 080°07'0 0.0
2014-Oct-30 23:29N 26°06' W 080°07'0 0.0
2014-Oct-30 22:29N 26°06' W 080°07'0 0.0
2014-Oct-30 21:29N 26°06' W 080°07'0 0.0
2014-Oct-30 20:29N 26°06' W 080°07'0 0.0
2014-Oct-30 19:32N 26°06' W 080°07'0 0.0
2014-Oct-30 18:32N 26°06' W 080°07'0 0.0
2014-Oct-30 17:32N 26°06' W 080°07'0 0.0
2014-Oct-30 16:32N 26°06' W 080°07'0 0.0
2014-Oct-30 15:32N 26°06' W 080°07'0 0.0
2014-Oct-30 14:23N 26°06' W 080°07'0 0.0
2014-Oct-30 13:33N 26°06' W 080°07'3 2.7
2014-Oct-30 12:33N 26°06' W 080°04'1 1.4
2014-Oct-30 11:33N 26°06' W 080°03'1 1.3
2014-Oct-30 10:31N 26°07' W 080°04'0 0.0
2014-Oct-30 09:31N 26°07' W 080°05'0 0.0
2014-Oct-30 08:31N 26°07' W 080°05'0 0.0
2014-Oct-30 07:31N 26°07' W 080°05'0 0.0
2014-Oct-30 06:31N 26°07' W 080°05'0 0.0
2014-Oct-30 05:31N 26°07' W 080°05'0 0.0
2014-Oct-30 04:22N 26°07' W 080°05'0 0.0
2014-Oct-30 03:25N 26°07' W 080°05'0 0.0
2014-Oct-30 02:25N 26°07' W 080°05'0 0.0
2014-Oct-30 01:25N 26°07' W 080°05'0 0.0
2014-Oct-30 00:28N 26°07' W 080°05'0 0.0
2014-Oct-29 23:28N 26°07' W 080°04'0 0.1
2014-Oct-29 22:28N 26°07' W 080°05'0 0.0
2014-Oct-29 21:31N 26°07' W 080°05'0 0.0
2014-Oct-29 20:31N 26°07' W 080°05'0 0.0
2014-Oct-29 19:31N 26°07' W 080°05'0 0.0
2014-Oct-29 18:31N 26°07' W 080°04'0 0.0
2014-Oct-29 17:31N 26°07' W 080°04'0 0.0
2014-Oct-29 16:31N 26°07' W 080°05'0 0.0
2014-Oct-29 15:31N 26°07' W 080°05'0 0.0
2014-Oct-29 14:22N 26°07' W 080°05'0 0.0
2014-Oct-29 13:25N 26°07' W 080°05'0 0.0
2014-Oct-29 12:25N 26°07' W 080°05'0 0.0
2014-Oct-29 11:25N 26°07' W 080°05'0 0.0
2014-Oct-29 10:28N 26°07' W 080°05'0 0.0
2014-Oct-29 09:28N 26°07' W 080°05'0 0.0
2014-Oct-29 08:28N 26°07' W 080°05'0 0.0
2014-Oct-29 07:33N 26°07' W 080°05'0 0.4
2014-Oct-29 06:33N 26°07' W 080°05'7 6.8
2014-Oct-29 05:33N 26°01' W 080°01'1414.1
2014-Oct-29 04:33N 25°47' W 079°59'  
2014-Oct-26 06:32N 29°23' W 093°41'9 9.4
2014-Oct-26 05:32N 29°32' W 093°43'  

Dump ship's entire track history